Time;durP1;ratioP1;P1;durP2;ratioP2;P2;SDS_P1;SDS_P2;PMS_P1;PMS_P2;Temp;Humidity;BMP_temperature;BMP_pressure;BME280_temperature;BME280_humidity;BME280_pressure;Samples;Min_cycle;Max_cycle;Signal;HPM_P1;HPM_P2
2021/04/10 00:01:11;;;;;;;;;;;13.70;62.90;;;;;;5053354;28;77805;-63
2021/04/10 00:03:37;;;;;;;;;;;13.70;63.00;;;;;;5052950;27;77232;-63
2021/04/10 00:06:02;;;;;;;;;;;13.70;63.00;;;;;;5052008;28;77284;-63
2021/04/10 00:08:28;;;;;;;;;;;13.70;63.10;;;;;;5054295;28;74472;-66
2021/04/10 00:10:54;;;;;;;;;;;13.70;63.00;;;;;;5053727;28;75262;-64
2021/04/10 00:13:19;;;;;;;;;;;13.70;63.10;;;;;;5052236;28;77549;-64
2021/04/10 00:15:46;;;;;;;;;;;13.80;63.00;;;;;;5051870;28;74654;-66
2021/04/10 00:18:11;;;;;;;;;;;13.80;63.00;;;;;;5052198;28;77479;-64
2021/04/10 00:20:37;;;;;;;;;;;13.80;62.80;;;;;;5053117;28;74627;-65
2021/04/10 00:23:02;;;;;;;;;;;13.70;62.80;;;;;;5053489;28;75131;-62
2021/04/10 00:25:28;;;;;;;;;;;13.70;62.90;;;;;;5052163;28;77071;-64
2021/04/10 00:27:53;;;;;;;;;;;13.60;63.00;;;;;;5052063;28;75548;-63
2021/04/10 00:30:19;;;;;;;;;;;13.60;63.20;;;;;;5051793;28;75768;-62
2021/04/10 00:32:45;;;;;;;;;;;13.60;63.20;;;;;;5053337;28;75239;-62
2021/04/10 00:35:11;;;;;;;;;;;13.50;63.40;;;;;;5053504;28;74940;-65
2021/04/10 00:37:36;;;;;;;;;;;13.50;63.60;;;;;;5052512;28;75270;-69
2021/04/10 00:40:03;;;;;;;;;;;13.50;63.60;;;;;;5052926;28;75145;-70
2021/04/10 00:42:28;;;;;;;;;;;13.50;63.60;;;;;;5051955;28;74608;-63
2021/04/10 00:44:54;;;;;;;;;;;13.50;63.40;;;;;;5051835;28;78264;-62
2021/04/10 00:47:20;;;;;;;;;;;13.40;63.40;;;;;;5051735;27;74449;-65
2021/04/10 00:49:45;;;;;;;;;;;13.40;63.40;;;;;;5053401;28;74395;-64
2021/04/10 00:52:11;;;;;;;;;;;13.30;63.60;;;;;;5085109;27;75420;-63
2021/04/10 00:54:37;;;;;;;;;;;13.30;63.80;;;;;;5053502;28;75731;-63
2021/04/10 00:57:03;;;;;;;;;;;13.20;63.80;;;;;;5052954;28;75288;-63
2021/04/10 00:59:29;;;;;;;;;;;13.20;63.90;;;;;;5051395;28;77550;-66
2021/04/10 01:01:55;;;;;;;;;;;13.20;64.00;;;;;;5085274;27;77183;-66
2021/04/10 01:04:20;;;;;;;;;;;13.10;64.20;;;;;;4997491;28;1547913;-66
2021/04/10 01:06:46;;;;;;;;;;;13.10;64.20;;;;;;5053949;28;75179;-62
2021/04/10 01:09:12;;;;;;;;;;;13.10;64.30;;;;;;5052300;28;76650;-66
2021/04/10 01:11:43;;;;;;;;;;;13.00;64.30;;;;;;5054158;28;75276;-67
2021/04/10 01:14:15;;;;;;;;;;;13.00;64.50;;;;;;5052182;28;77746;-64
2021/04/10 01:16:47;;;;;;;;;;;13.00;64.50;;;;;;5054119;28;74450;-65
2021/04/10 01:19:15;;;;;;;;;;;13.00;64.30;;;;;;5053421;28;75343;-65
2021/04/10 01:21:42;;;;;;;;;;;13.00;64.30;;;;;;5053980;28;74487;-66
2021/04/10 01:24:27;;;;;;;;;;;13.00;64.40;;;;;;5053756;28;75363;-67
2021/04/10 01:26:55;;;;;;;;;;;13.00;64.60;;;;;;5052016;28;77017;-63
2021/04/10 01:29:22;;;;;;;;;;;12.90;64.70;;;;;;5053516;28;75239;-64
2021/04/10 01:31:50;;;;;;;;;;;12.90;64.60;;;;;;5051146;28;74667;-64
2021/04/10 01:34:25;;;;;;;;;;;12.90;64.70;;;;;;5051640;28;78442;-66
2021/04/10 01:36:52;;;;;;;;;;;12.90;64.70;;;;;;5051587;28;75507;-63
2021/04/10 01:39:18;;;;;;;;;;;12.90;64.70;;;;;;5053615;28;75302;-64
2021/04/10 01:41:48;;;;;;;;;;;13.00;64.70;;;;;;5053359;28;74470;-63
2021/04/10 01:44:14;;;;;;;;;;;12.90;64.60;;;;;;5053448;28;75433;-64
2021/04/10 01:46:40;;;;;;;;;;;13.00;64.60;;;;;;5051911;28;77488;-66
2021/04/10 01:49:06;;;;;;;;;;;13.00;64.50;;;;;;5053249;28;75292;-64
2021/04/10 01:51:33;;;;;;;;;;;13.00;64.40;;;;;;5051697;28;78506;-65
2021/04/10 01:53:59;;;;;;;;;;;13.00;64.30;;;;;;5053457;28;74624;-62
2021/04/10 01:56:25;;;;;;;;;;;13.00;64.30;;;;;;5053426;28;75298;-64
2021/04/10 01:58:51;;;;;;;;;;;13.00;64.40;;;;;;5051641;28;74404;-66
2021/04/10 02:01:17;;;;;;;;;;;13.00;64.40;;;;;;5051334;28;77885;-67
2021/04/10 02:03:43;;;;;;;;;;;13.00;64.30;;;;;;5053147;28;74864;-62
2021/04/10 02:06:10;;;;;;;;;;;13.00;64.30;;;;;;5051050;28;78269;-62
2021/04/10 02:08:38;;;;;;;;;;;13.10;64.20;;;;;;5053084;28;75376;-68
2021/04/10 02:11:04;;;;;;;;;;;13.00;64.20;;;;;;5051122;28;77600;-69
2021/04/10 02:13:30;;;;;;;;;;;13.00;64.20;;;;;;5052945;28;75310;-65
2021/04/10 02:15:55;;;;;;;;;;;13.00;64.20;;;;;;5051406;28;77768;-70
2021/04/10 02:18:21;;;;;;;;;;;13.00;64.20;;;;;;5052408;28;74657;-68
2021/04/10 02:20:47;;;;;;;;;;;13.00;64.40;;;;;;5052996;28;75004;-66
2021/04/10 02:23:13;;;;;;;;;;;12.90;64.40;;;;;;5052583;28;75082;-67
2021/04/10 02:25:39;;;;;;;;;;;12.90;64.40;;;;;;5051046;28;75934;-68
2021/04/10 02:28:05;;;;;;;;;;;12.90;64.60;;;;;;5052787;28;75211;-69
2021/04/10 02:30:30;;;;;;;;;;;12.90;64.70;;;;;;5052586;28;75504;-69
2021/04/10 02:32:57;;;;;;;;;;;12.80;64.90;;;;;;5050869;28;77452;-69
2021/04/10 02:35:28;;;;;;;;;;;12.80;64.90;;;;;;5050802;28;77706;-66
2021/04/10 02:37:54;;;;;;;;;;;12.80;65.00;;;;;;5051034;28;76703;-65
2021/04/10 02:40:21;;;;;;;;;;;12.80;65.10;;;;;;5052548;28;75343;-67
2021/04/10 02:42:47;;;;;;;;;;;12.70;65.10;;;;;;5051178;28;77303;-69
2021/04/10 02:45:15;;;;;;;;;;;12.70;65.10;;;;;;5052416;28;75294;-70
2021/04/10 02:47:43;;;;;;;;;;;12.70;65.20;;;;;;5053082;28;75210;-69
2021/04/10 02:50:09;;;;;;;;;;;12.70;65.20;;;;;;5052372;28;75184;-70
2021/04/10 02:52:36;;;;;;;;;;;12.70;65.30;;;;;;5051021;28;76364;-71
2021/04/10 02:55:04;;;;;;;;;;;12.60;65.30;;;;;;5051626;28;76715;-69
2021/04/10 02:57:30;;;;;;;;;;;12.60;65.40;;;;;;5052732;28;75220;-72
2021/04/10 03:00:01;;;;;;;;;;;12.60;65.40;;;;;;5050939;28;77792;-63
2021/04/10 03:02:27;;;;;;;;;;;12.60;65.50;;;;;;5050460;28;76519;-71
2021/04/10 03:04:53;;;;;;;;;;;12.60;65.60;;;;;;5052159;28;74615;-65
2021/04/10 03:07:19;;;;;;;;;;;12.70;65.50;;;;;;5051009;28;75210;-68
2021/04/10 03:09:46;;;;;;;;;;;12.70;65.40;;;;;;5050352;28;76490;-65
2021/04/10 03:12:12;;;;;;;;;;;12.70;65.40;;;;;;5052175;28;75169;-65
2021/04/10 03:14:37;;;;;;;;;;;12.80;65.50;;;;;;5050443;28;77115;-69
2021/04/10 03:17:04;;;;;;;;;;;12.80;65.40;;;;;;5050753;28;75438;-64
2021/04/10 03:19:30;;;;;;;;;;;12.80;65.40;;;;;;5051780;28;75632;-66
2021/04/10 03:21:55;;;;;;;;;;;12.90;65.40;;;;;;5052107;28;75252;-66
2021/04/10 03:24:21;;;;;;;;;;;12.90;65.20;;;;;;5052515;28;74534;-66
2021/04/10 03:26:47;;;;;;;;;;;12.90;65.20;;;;;;5051753;28;74955;-67
2021/04/10 03:29:13;;;;;;;;;;;12.90;65.20;;;;;;5050219;28;77167;-65
2021/04/10 03:31:39;;;;;;;;;;;12.90;65.10;;;;;;5051738;28;75251;-63
2021/04/10 03:34:05;;;;;;;;;;;12.90;65.00;;;;;;5051912;28;75226;-63
2021/04/10 03:36:31;;;;;;;;;;;12.90;65.10;;;;;;5051861;28;75319;-63
2021/04/10 03:38:57;;;;;;;;;;;12.90;65.00;;;;;;5051509;28;74652;-65
2021/04/10 03:41:23;;;;;;;;;;;13.00;65.10;;;;;;5050234;28;77197;-64
2021/04/10 03:43:49;;;;;;;;;;;13.00;65.20;;;;;;5050022;28;77077;-63
2021/04/10 03:46:14;;;;;;;;;;;13.10;65.10;;;;;;5051991;28;75885;-64
2021/04/10 03:48:40;;;;;;;;;;;13.10;64.90;;;;;;5049779;28;76913;-64
2021/04/10 03:51:06;;;;;;;;;;;13.10;65.00;;;;;;5084362;27;77293;-64
2021/04/10 03:53:31;;;;;;;;;;;13.10;65.00;;;;;;5051918;28;75274;-64
2021/04/10 03:55:57;;;;;;;;;;;13.20;65.00;;;;;;5053164;27;75121;-64
2021/04/10 03:58:22;;;;;;;;;;;13.20;64.90;;;;;;5055490;28;74507;-64
2021/04/10 04:00:48;;;;;;;;;;;13.20;65.00;;;;;;5053602;28;78180;-62
2021/04/10 04:03:14;;;;;;;;;;;13.20;65.10;;;;;;5053681;28;76050;-62
2021/04/10 04:05:39;;;;;;;;;;;13.20;65.20;;;;;;5054608;28;75334;-64
2021/04/10 04:08:05;;;;;;;;;;;13.30;65.10;;;;;;5053765;27;74542;-63
2021/04/10 04:10:31;;;;;;;;;;;13.20;64.90;;;;;;5055086;28;75167;-65
2021/04/10 04:12:57;;;;;;;;;;;13.30;64.80;;;;;;5055028;28;74898;-64
2021/04/10 04:15:22;;;;;;;;;;;13.30;64.80;;;;;;5055168;28;75067;-63
2021/04/10 04:17:48;;;;;;;;;;;13.30;64.80;;;;;;5055160;28;74812;-63
2021/04/10 04:20:14;;;;;;;;;;;13.20;64.70;;;;;;5054791;28;74398;-64
2021/04/10 04:22:39;;;;;;;;;;;13.20;64.60;;;;;;5053019;28;76250;-63
2021/04/10 04:25:07;;;;;;;;;;;13.10;64.80;;;;;;5053288;28;75467;-63
2021/04/10 04:27:33;;;;;;;;;;;13.10;65.00;;;;;;5054670;28;75117;-64
2021/04/10 04:29:59;;;;;;;;;;;13.10;65.00;;;;;;5052695;28;76299;-63
2021/04/10 04:32:25;;;;;;;;;;;13.10;65.00;;;;;;5054754;28;75227;-63
2021/04/10 04:34:51;;;;;;;;;;;13.20;65.10;;;;;;5054414;28;75166;-68
2021/04/10 04:37:16;;;;;;;;;;;13.10;65.00;;;;;;5054644;28;75263;-65
2021/04/10 04:39:42;;;;;;;;;;;13.20;65.30;;;;;;5052973;28;77123;-63
2021/04/10 04:42:08;;;;;;;;;;;13.20;65.30;;;;;;5054362;28;75760;-65
2021/04/10 04:44:33;;;;;;;;;;;13.20;65.30;;;;;;5054436;28;75179;-63
2021/04/10 04:46:59;;;;;;;;;;;13.20;65.30;;;;;;5054060;28;75172;-64
2021/04/10 04:49:24;;;;;;;;;;;13.10;65.30;;;;;;5054124;28;75308;-65
2021/04/10 04:51:53;;;;;;;;;;;13.10;65.50;;;;;;5054213;28;75595;-63
2021/04/10 04:54:19;;;;;;;;;;;13.10;65.60;;;;;;5052646;28;75358;-64
2021/04/10 04:56:44;;;;;;;;;;;13.10;65.70;;;;;;5052664;28;76791;-64
2021/04/10 04:59:10;;;;;;;;;;;13.10;65.80;;;;;;5054225;28;75313;-63
2021/04/10 05:01:36;;;;;;;;;;;13.10;65.70;;;;;;5054109;28;75845;-63
2021/04/10 05:04:01;;;;;;;;;;;13.20;65.90;;;;;;5052024;28;77184;-63
2021/04/10 05:06:27;;;;;;;;;;;13.10;65.80;;;;;;5053856;27;75081;-64
2021/04/10 05:08:52;;;;;;;;;;;13.00;65.90;;;;;;5053102;28;75306;-66
2021/04/10 05:11:18;;;;;;;;;;;13.10;65.90;;;;;;5054152;28;75112;-63
2021/04/10 05:13:44;;;;;;;;;;;13.00;66.10;;;;;;5052575;28;77656;-64
2021/04/10 05:16:09;;;;;;;;;;;13.00;66.20;;;;;;5054347;28;75604;-65
2021/04/10 05:18:35;;;;;;;;;;;13.00;66.20;;;;;;5052213;28;77548;-64
2021/04/10 05:21:00;;;;;;;;;;;13.00;66.30;;;;;;5053803;28;75199;-73
2021/04/10 05:23:26;;;;;;;;;;;12.90;66.40;;;;;;5054524;28;74478;-69
2021/04/10 05:25:52;;;;;;;;;;;12.90;66.30;;;;;;5053625;28;75203;-64
2021/04/10 05:28:17;;;;;;;;;;;12.90;66.50;;;;;;5054156;28;75326;-64
2021/04/10 05:30:43;;;;;;;;;;;12.90;66.60;;;;;;5053866;28;75149;-64
2021/04/10 05:33:09;;;;;;;;;;;12.90;66.60;;;;;;5051868;28;77898;-64
2021/04/10 05:35:35;;;;;;;;;;;12.90;66.80;;;;;;5053912;28;75139;-63
2021/04/10 05:38:01;;;;;;;;;;;12.90;66.90;;;;;;5052363;28;78184;-65
2021/04/10 05:40:26;;;;;;;;;;;12.90;66.90;;;;;;5054166;28;74577;-64
2021/04/10 05:42:52;;;;;;;;;;;12.90;67.00;;;;;;5053822;28;75233;-66
2021/04/10 05:45:17;;;;;;;;;;;12.90;67.00;;;;;;5053492;28;74822;-67
2021/04/10 05:47:43;;;;;;;;;;;12.90;67.00;;;;;;5051566;28;75974;-69
2021/04/10 05:50:09;;;;;;;;;;;12.90;67.00;;;;;;5051448;28;77977;-63
2021/04/10 05:52:35;;;;;;;;;;;13.00;66.90;;;;;;5053544;28;75092;-62
2021/04/10 05:55:01;;;;;;;;;;;12.90;66.80;;;;;;5053337;28;75653;-65
2021/04/10 05:57:26;;;;;;;;;;;13.00;66.80;;;;;;5053747;28;74419;-65
2021/04/10 05:59:52;;;;;;;;;;;12.90;66.60;;;;;;5051713;28;75473;-62
2021/04/10 06:02:17;;;;;;;;;;;12.90;66.80;;;;;;5051482;28;76541;-66
2021/04/10 06:04:43;;;;;;;;;;;12.90;66.90;;;;;;5051533;28;77185;-65
2021/04/10 06:07:09;;;;;;;;;;;12.90;66.90;;;;;;5051403;28;77228;-67
2021/04/10 06:09:34;;;;;;;;;;;12.90;66.80;;;;;;5053294;28;75589;-64
2021/04/10 06:12:00;;;;;;;;;;;12.90;66.80;;;;;;5052994;28;75164;-63
2021/04/10 06:14:25;;;;;;;;;;;12.90;66.90;;;;;;5050772;28;78545;-63
2021/04/10 06:16:51;;;;;;;;;;;12.90;67.00;;;;;;5052878;28;75145;-65
2021/04/10 06:19:17;;;;;;;;;;;12.90;66.90;;;;;;5050827;27;75265;-67
2021/04/10 06:21:43;;;;;;;;;;;12.90;67.00;;;;;;5051261;28;77543;-67
2021/04/10 06:24:09;;;;;;;;;;;12.90;67.00;;;;;;5053322;28;74569;-64
2021/04/10 06:26:34;;;;;;;;;;;13.00;67.00;;;;;;5051357;28;76198;-63
2021/04/10 06:29:00;;;;;;;;;;;13.00;66.90;;;;;;5051299;28;75790;-64
2021/04/10 06:31:26;;;;;;;;;;;12.90;66.70;;;;;;5052721;28;75192;-67
2021/04/10 06:33:51;;;;;;;;;;;13.00;66.70;;;;;;5051475;28;75268;-65
2021/04/10 06:36:17;;;;;;;;;;;12.90;66.90;;;;;;5052950;28;75242;-64
2021/04/10 06:38:43;;;;;;;;;;;12.90;67.00;;;;;;5052672;28;75029;-63
2021/04/10 06:41:11;;;;;;;;;;;12.90;67.10;;;;;;5050580;28;77022;-68
2021/04/10 06:43:36;;;;;;;;;;;12.90;67.10;;;;;;5052829;28;75171;-71
2021/04/10 06:46:02;;;;;;;;;;;12.90;67.10;;;;;;5052526;28;75330;-71
2021/04/10 06:48:29;;;;;;;;;;;12.80;67.20;;;;;;5050780;28;75331;-66
2021/04/10 06:50:55;;;;;;;;;;;12.80;67.40;;;;;;5052621;28;75191;-74
2021/04/10 06:53:22;;;;;;;;;;;12.80;67.40;;;;;;5050855;28;75874;-71
2021/04/10 06:55:50;;;;;;;;;;;12.80;67.50;;;;;;5050915;28;78374;-69
2021/04/10 06:58:34;;;;;;;;;;;12.70;67.80;;;;;;5050653;28;77279;-67
2021/04/10 07:01:01;;;;;;;;;;;12.60;67.90;;;;;;5052902;28;75618;-65
2021/04/10 07:03:27;;;;;;;;;;;12.60;67.80;;;;;;5051841;28;75305;-69
2021/04/10 07:05:53;;;;;;;;;;;12.60;68.00;;;;;;5052496;28;75705;-71
2021/04/10 07:08:22;;;;;;;;;;;12.70;68.20;;;;;;5050516;28;76353;-68
2021/04/10 07:10:49;;;;;;;;;;;12.70;67.90;;;;;;5050005;28;77233;-70
2021/04/10 07:13:15;;;;;;;;;;;12.80;67.90;;;;;;5050639;28;74728;-70
2021/04/10 07:15:40;;;;;;;;;;;12.90;67.80;;;;;;5051829;27;75456;-71
2021/04/10 07:18:06;;;;;;;;;;;13.00;67.50;;;;;;5050799;28;78028;-70
2021/04/10 07:20:33;;;;;;;;;;;13.00;67.30;;;;;;5051924;28;75376;-71
2021/04/10 07:23:02;;;;;;;;;;;13.10;67.20;;;;;;5052024;28;75392;-71
2021/04/10 07:25:29;;;;;;;;;;;13.20;67.00;;;;;;5049111;28;75043;-70
2021/04/10 07:27:55;;;;;;;;;;;13.40;66.70;;;;;;5042226;28;75718;-70
2021/04/10 07:30:21;;;;;;;;;;;13.40;66.70;;;;;;5049720;27;75187;-70
2021/04/10 07:32:47;;;;;;;;;;;13.50;66.40;;;;;;5054042;28;75909;-69
2021/04/10 07:35:17;;;;;;;;;;;13.60;66.20;;;;;;5050815;28;76667;-70
2021/04/10 07:37:43;;;;;;;;;;;13.70;65.80;;;;;;5052583;28;75457;-70
2021/04/10 07:40:12;;;;;;;;;;;13.60;65.80;;;;;;5054810;28;74522;-70
2021/04/10 07:42:42;;;;;;;;;;;13.60;65.90;;;;;;5053411;28;75521;-68
2021/04/10 07:45:23;;;;;;;;;;;13.70;65.80;;;;;;5052824;28;76406;-70
2021/04/10 07:47:49;;;;;;;;;;;13.80;65.70;;;;;;5054956;28;75180;-71
2021/04/10 07:50:16;;;;;;;;;;;13.90;65.50;;;;;;5053365;28;74560;-70
2021/04/10 07:52:42;;;;;;;;;;;14.00;64.90;;;;;;5054862;28;75237;-71
2021/04/10 07:55:08;;;;;;;;;;;14.00;64.70;;;;;;5055272;27;75640;-70
2021/04/10 07:57:34;;;;;;;;;;;14.10;64.50;;;;;;5054845;28;75114;-69
2021/04/10 08:00:02;;;;;;;;;;;14.00;64.40;;;;;;5055748;28;74473;-70
2021/04/10 08:02:32;;;;;;;;;;;13.90;64.80;;;;;;5055204;28;74961;-70
2021/04/10 08:05:02;;;;;;;;;;;13.70;65.20;;;;;;5052831;28;77963;-69
2021/04/10 08:07:32;;;;;;;;;;;13.60;65.70;;;;;;5054025;28;75267;-69
2021/04/10 08:09:59;;;;;;;;;;;13.60;65.70;;;;;;5054033;28;75044;-68
2021/04/10 08:12:26;;;;;;;;;;;13.70;65.60;;;;;;5054594;28;74876;-68
2021/04/10 08:14:51;;;;;;;;;;;13.70;65.50;;;;;;5053094;28;76490;-69
2021/04/10 08:17:36;;;;;;;;;;;13.70;65.60;;;;;;5054192;28;75144;-69
2021/04/10 08:20:20;;;;;;;;;;;13.80;65.60;;;;;;5054070;28;75141;-70
2021/04/10 08:22:46;;;;;;;;;;;13.90;65.40;;;;;;5052925;28;75670;-70
2021/04/10 08:25:12;;;;;;;;;;;14.00;64.70;;;;;;5055317;28;75196;-68
2021/04/10 08:27:38;;;;;;;;;;;14.10;64.50;;;;;;5054227;28;74528;-70
2021/04/10 08:30:04;;;;;;;;;;;14.20;64.30;;;;;;5054820;28;75215;-69
2021/04/10 08:32:30;;;;;;;;;;;14.20;64.30;;;;;;5052953;28;78064;-69
2021/04/10 08:34:55;;;;;;;;;;;14.20;64.60;;;;;;5054518;28;75022;-68
2021/04/10 08:37:21;;;;;;;;;;;14.30;63.90;;;;;;5053966;28;75168;-69
2021/04/10 08:39:48;;;;;;;;;;;14.40;63.90;;;;;;5054084;28;74649;-69
2021/04/10 08:42:14;;;;;;;;;;;14.40;64.00;;;;;;5052372;28;76513;-68
2021/04/10 08:44:40;;;;;;;;;;;14.50;63.80;;;;;;5054447;28;75363;-68
2021/04/10 08:47:06;;;;;;;;;;;14.60;63.60;;;;;;5052002;28;77051;-69
2021/04/10 08:49:36;;;;;;;;;;;14.80;63.30;;;;;;5053987;28;75071;-68
2021/04/10 08:52:04;;;;;;;;;;;14.90;63.00;;;;;;5052494;28;77121;-70
2021/04/10 08:54:33;;;;;;;;;;;15.00;62.80;;;;;;5052323;28;77687;-68
2021/04/10 08:57:04;;;;;;;;;;;15.00;62.20;;;;;;5051545;28;76026;-68
2021/04/10 08:59:37;;;;;;;;;;;15.10;62.30;;;;;;5053504;28;75288;-68
2021/04/10 09:02:07;;;;;;;;;;;15.30;61.90;;;;;;5053783;28;77951;-67
2021/04/10 09:05:05;;;;;;;;;;;15.30;61.30;;;;;;5053382;28;75070;-69
2021/04/10 09:07:54;;;;;;;;;;;15.40;61.50;;;;;;5029994;28;75641;-70
2021/04/10 09:10:28;;;;;;;;;;;15.50;60.90;;;;;;5045322;28;75152;-70
2021/04/10 09:13:15;;;;;;;;;;;15.50;60.70;;;;;;5052458;28;78470;-69
2021/04/10 09:15:41;;;;;;;;;;;15.70;60.60;;;;;;5053688;28;74652;-68
2021/04/10 09:18:07;;;;;;;;;;;15.80;59.30;;;;;;5052182;28;75400;-68
2021/04/10 09:20:42;;;;;;;;;;;15.60;59.10;;;;;;5049630;28;77897;-68
2021/04/10 09:23:08;;;;;;;;;;;15.70;60.00;;;;;;5053543;27;75357;-73
2021/04/10 09:25:34;;;;;;;;;;;16.20;59.80;;;;;;5051910;28;77998;-68
2021/04/10 09:28:03;;;;;;;;;;;16.80;58.60;;;;;;5053241;28;75029;-73
2021/04/10 09:30:36;;;;;;;;;;;17.30;57.10;;;;;;5053077;28;75205;-70
2021/04/10 09:33:22;;;;;;;;;;;17.40;54.40;;;;;;5053302;28;75226;-66
2021/04/10 09:35:47;;;;;;;;;;;16.80;55.90;;;;;;5051192;28;78250;-69
2021/04/10 09:38:33;;;;;;;;;;;16.40;57.50;;;;;;5053356;28;74501;-69
2021/04/10 09:40:59;;;;;;;;;;;16.40;58.00;;;;;;5052974;28;74972;-71
2021/04/10 09:43:26;;;;;;;;;;;16.50;57.70;;;;;;5053547;28;75406;-69
2021/04/10 09:45:51;;;;;;;;;;;16.50;57.70;;;;;;5052982;28;75080;-67
2021/04/10 09:48:19;;;;;;;;;;;16.30;58.00;;;;;;5053131;28;74967;-72
2021/04/10 09:50:58;;;;;;;;;;;16.10;58.40;;;;;;5051266;28;77514;-68
2021/04/10 09:53:24;;;;;;;;;;;15.90;58.30;;;;;;5052606;27;75467;-69
2021/04/10 09:55:56;;;;;;;;;;;15.60;59.30;;;;;;5052625;28;75240;-68
2021/04/10 09:58:23;;;;;;;;;;;15.40;60.00;;;;;;5052388;28;75122;-67
2021/04/10 10:00:53;;;;;;;;;;;15.40;60.60;;;;;;5051236;28;75481;-70
2021/04/10 10:03:19;;;;;;;;;;;15.50;60.60;;;;;;5051170;28;78381;-69
2021/04/10 10:05:46;;;;;;;;;;;15.70;59.90;;;;;;5052334;28;75378;-68
2021/04/10 10:08:13;;;;;;;;;;;15.90;59.70;;;;;;5052646;28;74581;-69
2021/04/10 10:10:39;;;;;;;;;;;15.90;58.90;;;;;;5052636;28;75394;-68
2021/04/10 10:13:05;;;;;;;;;;;16.00;58.60;;;;;;5051416;28;78044;-68
2021/04/10 10:15:31;;;;;;;;;;;16.00;59.10;;;;;;5051038;28;78248;-69
2021/04/10 10:17:57;;;;;;;;;;;16.10;57.60;;;;;;5050842;28;77662;-69
2021/04/10 10:20:23;;;;;;;;;;;16.00;58.10;;;;;;5051363;28;75528;-70
2021/04/10 10:22:49;;;;;;;;;;;16.10;58.00;;;;;;5051580;28;75673;-68
2021/04/10 10:25:15;;;;;;;;;;;16.00;57.80;;;;;;5051012;28;77633;-70
2021/04/10 10:27:42;;;;;;;;;;;16.00;57.80;;;;;;5050819;28;76002;-68
2021/04/10 10:30:18;;;;;;;;;;;16.20;58.20;;;;;;5052444;27;75086;-69
2021/04/10 10:32:47;;;;;;;;;;;16.30;57.80;;;;;;5050860;28;75308;-69
2021/04/10 10:35:14;;;;;;;;;;;16.40;57.30;;;;;;5052499;27;75361;-67
2021/04/10 10:37:40;;;;;;;;;;;16.50;57.40;;;;;;5049589;28;77209;-69
2021/04/10 10:40:06;;;;;;;;;;;16.60;57.30;;;;;;5052247;27;75155;-68
2021/04/10 10:42:31;;;;;;;;;;;16.70;57.30;;;;;;5050324;28;75661;-68
2021/04/10 10:44:57;;;;;;;;;;;16.90;56.90;;;;;;5050818;28;76936;-69
2021/04/10 10:47:26;;;;;;;;;;;17.10;56.60;;;;;;5050004;28;77568;-71
2021/04/10 10:49:52;;;;;;;;;;;17.30;55.30;;;;;;5050103;28;77294;-67
2021/04/10 10:52:18;;;;;;;;;;;17.40;55.20;;;;;;5052206;27;74671;-71
2021/04/10 10:54:46;;;;;;;;;;;17.50;55.30;;;;;;5052274;28;75600;-69
2021/04/10 10:57:13;;;;;;;;;;;17.70;54.00;;;;;;5050303;28;75723;-69
2021/04/10 10:59:39;;;;;;;;;;;17.80;53.60;;;;;;5050863;28;76340;-69
2021/04/10 11:02:06;;;;;;;;;;;18.00;53.80;;;;;;5050549;28;77596;-69
2021/04/10 11:04:35;;;;;;;;;;;18.20;52.00;;;;;;5049844;27;75129;-70
2021/04/10 11:07:02;;;;;;;;;;;18.40;52.60;;;;;;5055298;28;75233;-69
2021/04/10 11:09:28;;;;;;;;;;;18.60;52.00;;;;;;5054476;28;75487;-69
2021/04/10 11:12:01;;;;;;;;;;;18.70;52.40;;;;;;5055489;28;75006;-69
2021/04/10 11:14:28;;;;;;;;;;;19.00;51.90;;;;;;5054836;27;75310;-67
2021/04/10 11:16:55;;;;;;;;;;;19.00;50.30;;;;;;5044216;28;75227;-70
2021/04/10 11:19:31;;;;;;;;;;;19.20;50.80;;;;;;5053745;28;74543;-71
2021/04/10 11:21:57;;;;;;;;;;;19.50;50.50;;;;;;5055388;27;74966;-70
2021/04/10 11:24:33;;;;;;;;;;;20.00;48.30;;;;;;5053565;28;76034;-71
2021/04/10 11:27:08;;;;;;;;;;;20.10;48.70;;;;;;5053028;28;75205;-71
2021/04/10 11:29:34;;;;;;;;;;;20.20;48.70;;;;;;5053579;28;76699;-71
2021/04/10 11:32:06;;;;;;;;;;;20.30;48.60;;;;;;5055150;28;76494;-76
2021/04/10 11:34:36;;;;;;;;;;;20.30;48.80;;;;;;5057129;28;74524;-75
2021/04/10 11:37:03;;;;;;;;;;;20.40;48.40;;;;;;5056285;28;76188;-76
2021/04/10 11:39:30;;;;;;;;;;;20.30;48.00;;;;;;5056506;28;76580;-75
2021/04/10 11:41:56;;;;;;;;;;;20.20;47.90;;;;;;5056603;28;74590;-72
2021/04/10 11:44:23;;;;;;;;;;;20.20;48.90;;;;;;5055898;27;75067;-72
2021/04/10 11:46:57;;;;;;;;;;;20.20;48.60;;;;;;5055538;28;75298;-71
2021/04/10 11:49:27;;;;;;;;;;;20.00;48.70;;;;;;5055225;28;75298;-73
2021/04/10 11:51:52;;;;;;;;;;;19.80;49.00;;;;;;5055221;27;75207;-70
2021/04/10 11:54:31;;;;;;;;;;;20.00;49.00;;;;;;5055399;27;75650;-70
2021/04/10 11:56:57;;;;;;;;;;;20.10;47.60;;;;;;5054115;28;78532;-72
2021/04/10 11:59:29;;;;;;;;;;;19.90;48.00;;;;;;5053737;28;78156;-72
2021/04/10 12:01:58;;;;;;;;;;;20.30;48.40;;;;;;5055457;28;74748;-71
2021/04/10 12:04:28;;;;;;;;;;;21.40;47.90;;;;;;5054736;27;75126;-72
2021/04/10 12:07:04;;;;;;;;;;;25.50;41.10;;;;;;5053731;28;78320;-72
2021/04/10 12:09:30;;;;;;;;;;;28.50;35.00;;;;;;5055079;27;75424;-72
2021/04/10 12:11:59;;;;;;;;;;;29.50;31.00;;;;;;5055486;27;74433;-72
2021/04/10 12:14:24;;;;;;;;;;;29.70;30.80;;;;;;5054829;27;75251;-73
2021/04/10 12:16:50;;;;;;;;;;;27.70;33.00;;;;;;5053038;27;76734;-72
2021/04/10 12:19:15;;;;;;;;;;;25.80;36.40;;;;;;5055113;27;75390;-71
2021/04/10 12:21:41;;;;;;;;;;;25.10;38.60;;;;;;5054653;27;75165;-71
2021/04/10 12:24:07;;;;;;;;;;;26.00;36.90;;;;;;5055280;27;74492;-70
2021/04/10 12:26:33;;;;;;;;;;;25.40;36.40;;;;;;5055072;28;75169;-70
2021/04/10 12:28:59;;;;;;;;;;;24.30;38.70;;;;;;5053361;28;78081;-72
2021/04/10 12:31:24;;;;;;;;;;;23.50;40.80;;;;;;5054455;27;74650;-71
2021/04/10 12:33:50;;;;;;;;;;;23.40;41.50;;;;;;5053122;28;77604;-70
2021/04/10 12:36:15;;;;;;;;;;;23.40;41.90;;;;;;5053178;28;77855;-71
2021/04/10 12:38:41;;;;;;;;;;;23.70;41.40;;;;;;5053002;28;75088;-70
2021/04/10 12:41:07;;;;;;;;;;;24.10;39.30;;;;;;5052889;28;77040;-71
2021/04/10 12:43:33;;;;;;;;;;;25.60;38.60;;;;;;5052919;28;75644;-71
2021/04/10 12:45:59;;;;;;;;;;;25.90;37.70;;;;;;5053178;28;75524;-71
2021/04/10 12:48:25;;;;;;;;;;;25.30;37.80;;;;;;5053102;28;74810;-72
2021/04/10 12:50:50;;;;;;;;;;;24.60;39.60;;;;;;5052947;28;77083;-72
2021/04/10 12:53:16;;;;;;;;;;;24.10;40.20;;;;;;5052876;28;77055;-71
2021/04/10 12:55:42;;;;;;;;;;;23.80;40.80;;;;;;5054532;27;74998;-71
2021/04/10 12:58:07;;;;;;;;;;;23.80;41.70;;;;;;5052824;28;78582;-72
2021/04/10 13:00:33;;;;;;;;;;;24.60;39.90;;;;;;5052499;28;77962;-71
2021/04/10 13:02:58;;;;;;;;;;;24.50;39.80;;;;;;5054806;27;74500;-71
2021/04/10 13:05:24;;;;;;;;;;;24.40;39.80;;;;;;5054210;27;75114;-71
2021/04/10 13:07:50;;;;;;;;;;;24.90;40.10;;;;;;5054404;27;74931;-71
2021/04/10 13:10:15;;;;;;;;;;;26.20;37.80;;;;;;5054342;27;75156;-70
2021/04/10 13:12:41;;;;;;;;;;;26.90;37.40;;;;;;5054180;27;75313;-70
2021/04/10 13:15:08;;;;;;;;;;;27.00;36.20;;;;;;5055351;28;74382;-70
2021/04/10 13:17:35;;;;;;;;;;;26.50;37.00;;;;;;5052642;28;78523;-71
2021/04/10 13:20:01;;;;;;;;;;;25.60;36.80;;;;;;5052286;28;77302;-71
2021/04/10 13:22:27;;;;;;;;;;;24.50;38.50;;;;;;5052448;28;77558;-69
2021/04/10 13:24:54;;;;;;;;;;;23.80;40.50;;;;;;5051995;28;75325;-70
2021/04/10 13:27:20;;;;;;;;;;;23.50;40.70;;;;;;5052016;27;78089;-71
2021/04/10 13:29:45;;;;;;;;;;;22.90;41.20;;;;;;5051300;28;75727;-73
2021/04/10 13:32:11;;;;;;;;;;;22.20;43.40;;;;;;5052416;28;75316;-71
2021/04/10 13:34:37;;;;;;;;;;;21.50;44.40;;;;;;5051822;28;76369;-71
2021/04/10 13:37:02;;;;;;;;;;;20.80;45.90;;;;;;5052138;28;74639;-70
2021/04/10 13:39:28;;;;;;;;;;;20.30;47.10;;;;;;5052366;28;76677;-71
2021/04/10 13:41:53;;;;;;;;;;;19.80;48.50;;;;;;5051971;28;77320;-71
2021/04/10 13:44:19;;;;;;;;;;;19.50;49.00;;;;;;5054201;27;75577;-71
2021/04/10 13:46:45;;;;;;;;;;;19.40;49.50;;;;;;5053561;27;75709;-70
2021/04/10 13:49:10;;;;;;;;;;;19.30;49.60;;;;;;5051774;28;75473;-70
2021/04/10 13:51:36;;;;;;;;;;;19.30;50.00;;;;;;5052106;28;77718;-70
2021/04/10 13:54:02;;;;;;;;;;;19.70;49.90;;;;;;5053006;27;75363;-70
2021/04/10 13:56:30;;;;;;;;;;;20.40;48.60;;;;;;5051693;28;75071;-70
2021/04/10 13:58:56;;;;;;;;;;;21.00;46.80;;;;;;5053290;28;74449;-70
2021/04/10 14:01:22;;;;;;;;;;;21.70;45.60;;;;;;5051560;28;77596;-66
2021/04/10 14:03:47;;;;;;;;;;;22.40;44.70;;;;;;5050970;28;77870;-74
2021/04/10 14:06:14;;;;;;;;;;;23.10;43.30;;;;;;5051685;28;75812;-69
2021/04/10 14:08:40;;;;;;;;;;;23.50;40.80;;;;;;5051140;28;77492;-70
2021/04/10 14:11:07;;;;;;;;;;;23.20;41.50;;;;;;5053042;27;74416;-70
2021/04/10 14:13:32;;;;;;;;;;;23.20;41.50;;;;;;5051935;28;77041;-71
2021/04/10 14:15:59;;;;;;;;;;;23.70;41.10;;;;;;5053008;27;74953;-70